Time;durP1;ratioP1;P1;durP2;ratioP2;P2;SDS_P1;SDS_P2;PMS_P1;PMS_P2;Temp;Humidity;BMP_temperature;BMP_pressure;BME280_temperature;BME280_humidity;BME280_pressure;Samples;Min_cycle;Max_cycle;Signal;HPM_P1;HPM_P2
2022/06/04 00:00:38;;;;;;;6.70;5.25;;;13.10;99.90;;;;;;5022294;28;20200;-71
2022/06/04 00:03:08;;;;;;;7.03;4.88;;;13.20;99.90;;;;;;5021157;28;20229;-72
2022/06/04 00:05:38;;;;;;;6.75;6.15;;;13.10;99.90;;;;;;5035230;28;20224;-72
2022/06/04 00:08:07;;;;;;;9.95;5.97;;;13.10;99.90;;;;;;5030648;28;20223;-73
2022/06/04 00:16:06;;;;;;;12.07;5.88;;;13.00;99.90;;;;;;5029271;28;20211;-72
2022/06/04 00:18:35;;;;;;;10.75;6.03;;;12.90;99.90;;;;;;5003982;28;20196;-73
2022/06/04 00:21:02;;;;;;;7.65;6.55;;;12.90;99.90;;;;;;5020183;28;20424;-72
2022/06/04 00:23:29;;;;;;;5.97;5.43;;;12.90;99.90;;;;;;5018008;28;20718;-72
2022/06/04 00:25:58;;;;;;;7.07;6.45;;;12.90;99.90;;;;;;5011784;28;20295;-72
2022/06/04 00:28:27;;;;;;;8.50;6.50;;;12.90;99.90;;;;;;5011288;28;20208;-72
2022/06/04 00:30:57;;;;;;;9.18;6.65;;;12.80;99.90;;;;;;5012760;28;20253;-72
2022/06/04 00:33:24;;;;;;;7.82;6.10;;;12.80;99.90;;;;;;5016388;28;20258;-72
2022/06/04 00:35:55;;;;;;;8.27;6.43;;;12.80;99.90;;;;;;5013922;28;20283;-72
2022/06/04 00:38:24;;;;;;;7.90;7.10;;;12.70;99.90;;;;;;5020271;28;20211;-72
2022/06/04 00:40:54;;;;;;;9.82;7.32;;;12.70;99.90;;;;;;5019599;28;20209;-72
2022/06/04 00:43:21;;;;;;;7.65;6.95;;;12.70;99.90;;;;;;5008681;28;20773;-72
2022/06/04 00:46:42;;;;;;;9.60;6.78;;;12.70;99.90;;;;;;5012927;28;20662;-73
2022/06/04 00:49:12;;;;;;;9.32;7.47;;;12.60;99.90;;;;;;5008058;28;20262;-72
2022/06/04 00:51:42;;;;;;;8.93;6.35;;;12.60;99.90;;;;;;5003697;28;20232;-72
2022/06/04 00:54:10;;;;;;;10.30;8.68;;;12.60;99.90;;;;;;5006405;28;20246;-72
2022/06/04 00:56:45;;;;;;;11.50;8.80;;;12.50;99.90;;;;;;5016593;28;20210;-72
2022/06/04 00:59:26;;;;;;;7.97;6.80;;;12.60;99.90;;;;;;5006137;28;20243;-72
2022/06/04 01:02:00;;;;;;;9.30;7.38;;;12.50;99.90;;;;;;5009235;28;20585;-72
2022/06/04 01:04:50;;;;;;;8.57;7.68;;;12.50;99.90;;;;;;5001690;28;20234;-72
2022/06/04 01:07:40;;;;;;;11.98;7.85;;;12.50;99.90;;;;;;5014480;28;20214;-71
2022/06/04 01:10:27;;;;;;;8.52;7.72;;;12.40;99.90;;;;;;5014649;28;20215;-72
2022/06/04 01:13:07;;;;;;;9.88;8.88;;;12.40;99.90;;;;;;5011379;28;20224;-71
2022/06/04 01:15:50;;;;;;;9.85;8.43;;;12.40;99.90;;;;;;5014247;28;20200;-71
2022/06/04 01:18:29;;;;;;;11.75;8.15;;;12.40;99.90;;;;;;5009185;28;20210;-71
2022/06/04 01:21:02;;;;;;;9.00;7.88;;;12.30;99.90;;;;;;5013182;28;20203;-71
2022/06/04 01:24:15;;;;;;;8.13;7.32;;;12.30;99.90;;;;;;5017009;28;20250;-71
2022/06/04 01:26:59;;;;;;;12.02;9.20;;;12.30;99.90;;;;;;5010238;28;20242;-71
2022/06/04 01:29:32;;;;;;;12.73;9.45;;;12.20;99.90;;;;;;5015366;28;20216;-71
2022/06/04 01:32:06;;;;;;;12.38;10.27;;;12.20;99.90;;;;;;5011074;28;20227;-71
2022/06/04 01:34:44;;;;;;;12.18;9.18;;;12.20;99.90;;;;;;5013439;28;20743;-71
2022/06/04 01:37:15;;;;;;;19.00;9.57;;;12.20;99.90;;;;;;5010178;28;20551;-71
2022/06/04 01:42:36;;;;;;;10.88;9.40;;;12.10;99.90;;;;;;5015409;28;20225;-71
2022/06/04 01:45:08;;;;;;;10.88;9.75;;;12.10;99.90;;;;;;5011048;28;20302;-71
2022/06/04 01:47:36;;;;;;;9.65;8.65;;;12.10;99.90;;;;;;5016899;28;20310;-72
2022/06/04 01:50:08;;;;;;;11.25;8.93;;;12.10;99.90;;;;;;5014369;28;20265;-72
2022/06/04 01:52:38;;;;;;;11.20;9.50;;;12.10;99.90;;;;;;5016056;28;20319;-71
2022/06/04 01:55:10;;;;;;;16.05;11.32;;;12.00;99.90;;;;;;5016859;28;20298;-72
2022/06/04 01:57:43;;;;;;;11.88;8.45;;;12.00;99.90;;;;;;5016079;28;20617;-72
2022/06/04 02:00:15;;;;;;;11.63;9.32;;;11.90;99.90;;;;;;5016254;28;20269;-71
2022/06/04 02:02:54;;;;;;;11.93;9.63;;;11.90;99.90;;;;;;5016394;28;20222;-71
2022/06/04 02:05:26;;;;;;;13.63;9.65;;;11.90;99.90;;;;;;5015572;28;20211;-72
2022/06/04 02:07:55;;;;;;;11.98;10.50;;;11.80;99.90;;;;;;5016062;28;20225;-73
2022/06/04 02:10:28;;;;;;;12.18;10.55;;;11.80;99.90;;;;;;5016369;28;20281;-72
2022/06/04 02:13:00;;;;;;;16.80;9.93;;;11.80;99.90;;;;;;5016023;28;20675;-72
2022/06/04 02:15:31;;;;;;;16.27;10.88;;;11.80;99.90;;;;;;5015375;28;20194;-71
2022/06/04 02:18:01;;;;;;;17.00;10.95;;;11.70;99.90;;;;;;5015865;28;20611;-71
2022/06/04 02:20:28;;;;;;;16.95;11.65;;;11.70;99.90;;;;;;5001925;28;20324;-70
2022/06/04 02:22:55;;;;;;;13.40;10.75;;;11.70;99.90;;;;;;5012484;28;20312;-71
2022/06/04 02:25:23;;;;;;;11.65;9.48;;;11.70;99.90;;;;;;5014455;28;20251;-71
2022/06/04 02:27:51;;;;;;;19.35;11.18;;;11.70;99.90;;;;;;5012729;28;20289;-72
2022/06/04 02:30:21;;;;;;;16.48;11.52;;;11.70;99.90;;;;;;5020196;28;20691;-72
2022/06/04 02:33:01;;;;;;;16.45;12.57;;;11.70;99.90;;;;;;5014754;28;20232;-72
2022/06/04 02:35:34;;;;;;;14.15;11.82;;;11.70;99.90;;;;;;5010553;28;20237;-71
2022/06/04 02:38:08;;;;;;;17.02;11.32;;;11.60;99.90;;;;;;5011407;28;20205;-71
2022/06/04 02:40:47;;;;;;;16.08;11.40;;;11.60;99.90;;;;;;5015048;28;20571;-70
2022/06/04 02:43:20;;;;;;;16.48;11.07;;;11.60;99.90;;;;;;5019846;28;20656;-70
2022/06/04 02:45:53;;;;;;;15.98;12.00;;;11.60;99.90;;;;;;5009374;28;20237;-70
2022/06/04 02:48:25;;;;;;;17.88;12.80;;;11.60;99.90;;;;;;5012701;28;20236;-71
2022/06/04 02:50:56;;;;;;;16.75;11.85;;;11.50;99.90;;;;;;5021216;28;20211;-70
2022/06/04 02:53:24;;;;;;;17.35;13.70;;;11.50;99.90;;;;;;5020186;28;20256;-70
2022/06/04 02:55:56;;;;;;;15.18;10.80;;;11.50;99.90;;;;;;5030195;28;20244;-69
2022/06/04 02:58:23;;;;;;;16.73;13.32;;;11.50;99.90;;;;;;5027173;28;20202;-72
2022/06/04 03:00:56;;;;;;;15.05;12.40;;;11.50;99.90;;;;;;5035761;28;20268;-72
2022/06/04 03:03:23;;;;;;;16.90;11.80;;;11.50;99.90;;;;;;5019247;28;20275;-71
2022/06/04 03:05:55;;;;;;;15.93;13.90;;;11.50;99.90;;;;;;5039019;28;20209;-71
2022/06/04 03:08:24;;;;;;;17.90;11.65;;;11.40;99.90;;;;;;5033288;28;20198;-70
2022/06/04 03:10:51;;;;;;;18.25;12.27;;;11.40;99.90;;;;;;5024339;28;20221;-71
2022/06/04 03:13:19;;;;;;;16.70;13.35;;;11.40;99.90;;;;;;5012817;28;20301;-71
2022/06/04 03:15:47;;;;;;;16.48;13.48;;;11.50;99.90;;;;;;5001903;28;20542;-71
2022/06/04 03:18:16;;;;;;;17.73;14.10;;;11.40;99.90;;;;;;5010696;28;20213;-72
2022/06/04 03:20:43;;;;;;;15.85;13.98;;;11.40;99.90;;;;;;5009349;28;20237;-70
2022/06/04 03:23:10;;;;;;;19.50;14.43;;;11.40;99.90;;;;;;5010913;28;20319;-71
2022/06/04 03:25:39;;;;;;;16.80;13.73;;;11.40;99.90;;;;;;4997696;28;20374;-71
2022/06/04 03:28:06;;;;;;;15.15;13.40;;;11.40;99.90;;;;;;5012014;28;20656;-72
2022/06/04 03:30:35;;;;;;;18.52;12.23;;;11.40;99.90;;;;;;5013120;28;20234;-71
2022/06/04 03:33:03;;;;;;;17.55;11.85;;;11.40;99.90;;;;;;5013548;28;20231;-72
2022/06/04 03:35:31;;;;;;;15.85;12.50;;;11.50;99.90;;;;;;5013652;28;20249;-71
2022/06/04 03:37:59;;;;;;;19.10;14.50;;;11.50;99.90;;;;;;5028913;28;20205;-71
2022/06/04 03:40:26;;;;;;;17.77;13.55;;;11.50;99.90;;;;;;5015731;28;20289;-71
2022/06/04 03:42:53;;;;;;;19.05;13.57;;;11.50;99.90;;;;;;5018913;28;20217;-71
2022/06/04 03:45:20;;;;;;;20.88;14.50;;;11.50;99.90;;;;;;5030733;28;20313;-72
2022/06/04 03:47:47;;;;;;;19.15;14.93;;;11.60;99.90;;;;;;5014784;28;20625;-72
2022/06/04 03:50:18;;;;;;;21.20;12.75;;;11.60;99.90;;;;;;5020646;28;20243;-72
2022/06/04 03:52:48;;;;;;;24.10;13.95;;;11.60;99.90;;;;;;5027650;28;20567;-71
2022/06/04 03:55:16;;;;;;;18.98;12.85;;;11.70;99.90;;;;;;5026012;28;20237;-72
2022/06/04 03:57:48;;;;;;;17.33;12.88;;;11.80;99.90;;;;;;5016099;28;20293;-72
2022/06/04 04:00:19;;;;;;;23.60;13.80;;;11.90;99.90;;;;;;5023981;28;20197;-71
2022/06/04 04:02:49;;;;;;;16.90;13.32;;;12.10;99.90;;;;;;5024630;28;20253;-71
2022/06/04 04:05:18;;;;;;;19.63;13.25;;;12.20;99.90;;;;;;5024101;28;20616;-71
2022/06/04 04:07:47;;;;;;;23.70;13.73;;;12.40;99.90;;;;;;5029102;28;20632;-72
2022/06/04 04:10:14;;;;;;;18.70;12.88;;;12.80;99.90;;;;;;5022330;28;20263;-70
2022/06/04 04:12:42;;;;;;;16.27;11.85;;;13.40;99.90;;;;;;5026538;28;20266;-72
2022/06/04 04:15:10;;;;;;;11.52;10.35;;;14.10;99.90;;;;;;5020751;28;20244;-71
2022/06/04 04:17:39;;;;;;;13.10;10.35;;;14.80;99.90;;;;;;5010685;28;20205;-72
2022/06/04 04:20:09;;;;;;;15.02;11.43;;;15.50;99.90;;;;;;5014299;28;20240;-71
2022/06/04 04:22:39;;;;;;;13.13;11.30;;;15.90;99.90;;;;;;5012681;28;20220;-72
2022/06/04 04:25:09;;;;;;;11.77;10.57;;;16.00;99.90;;;;;;5013552;28;20242;-72
2022/06/04 04:27:37;;;;;;;14.93;9.55;;;15.90;99.90;;;;;;5013573;28;20289;-71
2022/06/04 04:30:05;;;;;;;18.30;11.60;;;15.80;99.90;;;;;;5012490;28;20293;-71
2022/06/04 04:32:33;;;;;;;12.30;11.00;;;16.00;99.90;;;;;;5010303;28;20225;-71
2022/06/04 04:35:00;;;;;;;14.63;9.98;;;16.30;99.90;;;;;;5010959;28;20217;-71
2022/06/04 04:37:27;;;;;;;11.80;9.52;;;16.40;99.90;;;;;;5012954;28;20292;-71
2022/06/04 04:39:55;;;;;;;12.70;10.75;;;16.80;99.90;;;;;;5013034;28;20607;-71
2022/06/04 04:42:24;;;;;;;12.32;10.38;;;17.30;99.90;;;;;;5013309;28;20250;-71
2022/06/04 04:44:51;;;;;;;11.60;9.98;;;17.80;99.90;;;;;;5012971;28;20240;-71
2022/06/04 04:47:19;;;;;;;13.40;9.50;;;18.20;99.90;;;;;;5012948;28;20238;-72
2022/06/04 04:49:46;;;;;;;11.30;9.50;;;18.50;99.90;;;;;;5012578;28;20526;-72
2022/06/04 04:52:14;;;;;;;9.97;8.60;;;18.90;99.90;;;;;;5015395;28;20494;-72
2022/06/04 04:54:41;;;;;;;11.37;8.83;;;19.40;98.90;;;;;;5011747;28;20535;-71
2022/06/04 04:57:08;;;;;;;12.73;9.10;;;19.90;97.90;;;;;;5012111;28;20475;-72
2022/06/04 04:59:36;;;;;;;11.30;8.20;;;20.20;95.90;;;;;;5012545;28;20522;-72
2022/06/04 05:02:03;;;;;;;8.83;7.87;;;20.50;94.70;;;;;;5013644;28;20484;-71
2022/06/04 05:04:30;;;;;;;14.00;9.13;;;20.80;94.10;;;;;;5014164;28;20527;-72
2022/06/04 05:06:57;;;;;;;10.50;9.13;;;21.00;93.60;;;;;;5012977;28;20830;-72
2022/06/04 05:09:24;;;;;;;8.80;7.97;;;21.10;93.00;;;;;;5014411;28;20616;-71
2022/06/04 05:11:51;;;;;;;8.47;7.40;;;21.20;92.50;;;;;;5014492;28;20559;-72
2022/06/04 05:14:18;;;;;;;11.67;9.03;;;21.50;91.80;;;;;;5013997;28;20505;-71
2022/06/04 05:16:46;;;;;;;8.23;7.43;;;21.10;91.70;;;;;;5015055;28;20487;-71
2022/06/04 05:19:13;;;;;;;11.33;9.17;;;20.40;93.10;;;;;;5013167;28;20528;-71
2022/06/04 05:21:44;;;;;;;10.10;8.63;;;20.00;93.70;;;;;;5012946;28;20517;-72
2022/06/04 05:24:17;;;;;;;10.07;8.80;;;19.70;95.00;;;;;;5013039;28;20773;-72
2022/06/04 05:26:44;;;;;;;8.53;7.63;;;19.90;95.00;;;;;;5013600;28;20799;-71
2022/06/04 05:29:11;;;;;;;10.13;8.53;;;19.90;95.10;;;;;;5013572;28;20458;-72
2022/06/04 05:31:39;;;;;;;9.83;8.70;;;19.90;94.90;;;;;;5010811;28;20464;-72
2022/06/04 05:34:08;;;;;;;10.60;8.87;;;20.00;95.00;;;;;;5010792;28;20497;-72
2022/06/04 05:36:35;;;;;;;9.63;8.60;;;20.30;94.80;;;;;;5012576;28;20484;-72
2022/06/04 05:39:02;;;;;;;11.10;9.33;;;20.60;94.30;;;;;;5013865;28;20447;-73
2022/06/04 05:41:29;;;;;;;10.97;8.50;;;21.10;93.40;;;;;;5012856;28;20464;-73
2022/06/04 05:43:56;;;;;;;10.33;7.90;;;21.10;93.10;;;;;;5013880;28;20496;-72
2022/06/04 05:46:23;;;;;;;11.10;8.37;;;21.50;93.00;;;;;;5014325;28;20458;-71
2022/06/04 05:48:50;;;;;;;10.90;8.97;;;21.80;92.30;;;;;;5015477;28;20443;-73
2022/06/04 05:51:24;;;;;;;10.77;8.00;;;22.30;91.60;;;;;;5018665;28;20513;-72
2022/06/04 05:53:52;;;;;;;15.00;9.30;;;22.70;90.90;;;;;;5026019;28;20483;-72
2022/06/04 05:56:20;;;;;;;11.10;9.60;;;23.20;90.10;;;;;;5035486;28;20424;-73
2022/06/04 05:59:10;;;;;;;11.40;8.73;;;23.50;88.50;;;;;;5037561;28;20459;-71
2022/06/04 06:01:39;;;;;;;9.87;8.63;;;23.90;87.40;;;;;;5032845;28;20464;-71
2022/06/04 06:04:09;;;;;;;11.23;8.90;;;24.20;86.30;;;;;;5036153;28;20476;-70
2022/06/04 06:06:41;;;;;;;9.33;7.83;;;24.50;85.20;;;;;;5038552;28;20447;-71
2022/06/04 06:09:21;;;;;;;8.60;7.80;;;24.40;84.80;;;;;;5019988;28;20452;-71
2022/06/04 06:11:49;;;;;;;11.33;8.17;;;24.90;84.00;;;;;;5015588;28;20460;-72
2022/06/04 06:14:17;;;;;;;12.60;7.70;;;25.00;83.10;;;;;;5020889;28;20476;-72
2022/06/04 06:16:46;;;;;;;12.23;8.70;;;24.50;84.30;;;;;;5015967;28;20545;-72
2022/06/04 06:19:14;;;;;;;8.00;7.03;;;24.70;83.90;;;;;;5016114;28;20538;-71
2022/06/04 06:21:43;;;;;;;11.83;8.40;;;24.90;83.40;;;;;;5016779;28;20583;-73
2022/06/04 06:24:12;;;;;;;8.67;7.70;;;24.80;82.40;;;;;;5015884;28;20526;-72
2022/06/04 06:26:43;;;;;;;8.17;6.80;;;25.10;82.40;;;;;;5017679;28;20993;-72
2022/06/04 06:29:10;;;;;;;10.10;7.50;;;25.30;80.90;;;;;;5008079;28;20528;-73
2022/06/04 06:31:37;;;;;;;10.53;6.00;;;25.10;81.20;;;;;;5014547;28;20979;-71
2022/06/04 06:34:04;;;;;;;10.90;8.43;;;25.50;80.30;;;;;;5013360;28;20562;-73
2022/06/04 06:36:33;;;;;;;9.80;7.37;;;25.60;80.30;;;;;;5015818;28;20531;-72
2022/06/04 06:39:01;;;;;;;12.37;8.77;;;25.60;79.50;;;;;;5016162;28;20494;-71
2022/06/04 06:41:28;;;;;;;10.30;8.13;;;25.20;80.50;;;;;;5006754;28;20518;-71
2022/06/04 06:43:56;;;;;;;10.57;8.40;;;25.10;81.00;;;;;;5008075;28;21203;-71
2022/06/04 06:46:25;;;;;;;9.80;7.83;;;24.80;81.10;;;;;;5012390;28;20887;-71
2022/06/04 06:48:55;;;;;;;11.80;8.10;;;25.10;81.00;;;;;;5012270;28;20515;-72
2022/06/04 06:51:25;;;;;;;9.93;8.50;;;24.80;81.40;;;;;;5013113;28;20478;-73
2022/06/04 06:53:54;;;;;;;15.07;8.43;;;24.80;82.30;;;;;;5013813;28;20484;-72
2022/06/04 06:56:25;;;;;;;10.50;8.60;;;25.20;81.80;;;;;;5015465;28;20470;-73
2022/06/04 06:58:52;;;;;;;10.60;9.50;;;25.70;81.20;;;;;;5018635;28;20444;-72
2022/06/04 07:01:21;;;;;;;10.03;8.20;;;26.20;79.70;;;;;;5016407;28;20467;-72
2022/06/04 07:03:49;;;;;;;9.60;8.60;;;26.70;78.20;;;;;;5015448;28;20444;-73
2022/06/04 07:06:16;;;;;;;11.47;8.87;;;27.50;75.90;;;;;;5014099;28;21596;-72
2022/06/04 07:08:44;;;;;;;12.87;10.00;;;27.40;75.30;;;;;;5016716;28;20535;-72
2022/06/04 07:11:11;;;;;;;9.90;8.90;;;27.20;74.20;;;;;;5014067;28;20447;-73
2022/06/04 07:13:39;;;;;;;11.27;9.10;;;27.00;75.20;;;;;;5016937;28;20484;-74
2022/06/04 07:16:06;;;;;;;9.70;8.33;;;26.80;75.90;;;;;;5013952;28;20456;-73
2022/06/04 07:18:33;;;;;;;11.53;9.03;;;26.50;77.40;;;;;;5016034;28;20439;-74
2022/06/04 07:21:00;;;;;;;12.20;9.57;;;26.30;77.20;;;;;;5013993;28;20534;-73
2022/06/04 07:23:27;;;;;;;12.50;9.63;;;26.00;78.00;;;;;;5015410;28;20475;-76
2022/06/04 07:25:55;;;;;;;11.67;9.70;;;26.20;78.00;;;;;;5013802;28;20487;-74
2022/06/04 07:28:23;;;;;;;13.90;10.50;;;26.00;77.70;;;;;;5014756;28;20914;-73
2022/06/04 07:30:51;;;;;;;16.57;9.87;;;26.10;77.90;;;;;;5012944;28;20770;-73
2022/06/04 07:33:18;;;;;;;12.90;9.40;;;26.50;78.30;;;;;;5013637;28;20907;-73
2022/06/04 07:35:49;;;;;;;14.67;10.50;;;26.40;77.30;;;;;;5010752;28;20459;-74
2022/06/04 07:38:17;;;;;;;13.40;10.53;;;26.30;77.80;;;;;;5011737;28;20874;-75
2022/06/04 07:40:45;;;;;;;11.27;9.10;;;26.60;77.60;;;;;;5012950;28;20436;-73
2022/06/04 07:43:12;;;;;;;12.47;9.40;;;26.70;76.80;;;;;;5009728;28;20528;-74
2022/06/04 07:45:40;;;;;;;11.50;9.27;;;26.50;77.80;;;;;;5017933;28;20811;-75
2022/06/04 07:48:10;;;;;;;13.53;9.37;;;26.40;77.80;;;;;;5010905;28;20445;-73
2022/06/04 07:50:39;;;;;;;15.13;8.87;;;26.50;77.80;;;;;;5010018;28;20511;-72
2022/06/04 07:53:06;;;;;;;12.23;9.40;;;26.40;77.80;;;;;;5011264;28;20519;-74
2022/06/04 07:55:38;;;;;;;12.30;9.20;;;26.50;78.00;;;;;;5008529;28;20514;-76
2022/06/04 07:58:05;;;;;;;12.53;9.97;;;26.70;77.60;;;;;;5016226;28;20483;-74
2022/06/04 08:00:37;;;;;;;12.13;9.90;;;27.00;76.90;;;;;;5016489;28;20478;-75
2022/06/04 08:03:05;;;;;;;11.53;9.00;;;27.50;76.00;;;;;;5012520;28;20498;-72
2022/06/04 08:05:34;;;;;;;10.50;9.00;;;27.70;75.10;;;;;;5012691;28;20448;-73
2022/06/04 08:08:01;;;;;;;8.50;7.60;;;27.90;74.50;;;;;;5011907;28;20450;-75
2022/06/04 08:10:28;;;;;;;10.97;8.90;;;28.50;73.20;;;;;;5011892;28;20468;-73
2022/06/04 08:12:55;;;;;;;10.10;8.73;;;28.70;72.90;;;;;;5012049;28;20582;-74
2022/06/04 08:15:23;;;;;;;11.37;9.30;;;28.90;71.80;;;;;;5009271;28;20451;-73
2022/06/04 08:17:50;;;;;;;8.93;8.03;;;29.60;70.40;;;;;;5014186;28;20452;-73
2022/06/04 08:20:18;;;;;;;9.20;8.27;;;29.90;69.40;;;;;;5012938;28;20539;-74
2022/06/04 08:22:46;;;;;;;11.07;9.80;;;30.00;68.50;;;;;;5013595;28;20523;-74
2022/06/04 08:25:14;;;;;;;8.60;7.70;;;29.60;68.80;;;;;;5010356;28;20452;-74
2022/06/04 08:27:41;;;;;;;7.97;7.03;;;29.50;68.80;;;;;;5015209;28;20452;-74
2022/06/04 08:30:09;;;;;;;8.50;7.60;;;29.90;68.30;;;;;;5012772;28;20476;-74
2022/06/04 08:32:37;;;;;;;9.67;8.50;;;30.20;67.60;;;;;;5012458;28;20559;-74
2022/06/04 08:35:05;;;;;;;10.17;7.70;;;30.60;65.30;;;;;;5012922;28;20865;-74
2022/06/04 08:37:32;;;;;;;8.33;7.20;;;30.30;66.00;;;;;;5012194;28;20476;-72
2022/06/04 08:40:01;;;;;;;9.23;7.60;;;30.10;66.90;;;;;;5013045;28;20543;-73
2022/06/04 08:42:44;;;;;;;11.43;7.13;;;30.60;67.90;;;;;;5013806;28;21804;-73
2022/06/04 08:45:13;;;;;;;8.80;8.00;;;30.60;65.90;;;;;;5016703;28;20448;-73
2022/06/04 08:47:45;;;;;;;9.13;7.77;;;30.70;66.00;;;;;;5018453;28;20471;-73
2022/06/04 08:50:18;;;;;;;10.37;7.50;;;30.60;65.30;;;;;;5019250;28;20473;-74
2022/06/04 08:52:48;;;;;;;8.20;7.23;;;30.30;65.70;;;;;;5015422;28;20543;-74
2022/06/04 08:58:22;;;;;;;8.93;7.10;;;30.60;64.40;;;;;;5052639;28;20419;-74
2022/06/04 09:00:55;;;;;;;9.43;8.00;;;30.50;64.40;;;;;;5024389;28;20447;-74
2022/06/04 09:03:46;;;;;;;15.50;6.77;;;30.60;65.30;;;;;;5028070;28;20464;-74
2022/06/04 09:06:46;;;;;;;8.80;7.40;;;30.50;65.80;;;;;;5029044;28;20467;-75
2022/06/04 09:09:18;;;;;;;9.70;7.50;;;30.70;66.20;;;;;;5005646;28;20447;-73
2022/06/04 09:11:54;;;;;;;8.33;7.13;;;31.30;64.10;;;;;;5014210;28;20467;-73
2022/06/04 09:14:34;;;;;;;7.50;6.13;;;31.30;63.80;;;;;;5019643;28;20562;-72
2022/06/04 09:17:06;;;;;;;8.20;7.40;;;31.30;63.30;;;;;;5010677;28;20825;-72
2022/06/04 09:19:35;;;;;;;8.50;7.40;;;31.30;63.10;;;;;;5011490;28;20520;-75
2022/06/04 09:22:04;;;;;;;8.40;7.27;;;30.80;63.40;;;;;;5009636;28;20550;-74
2022/06/04 09:24:31;;;;;;;10.80;8.00;;;30.30;64.20;;;;;;5013022;28;20480;-73
2022/06/04 09:27:14;;;;;;;9.37;6.40;;;30.30;64.40;;;;;;5016560;28;20885;-76
2022/06/04 09:29:59;;;;;;;7.23;6.17;;;30.10;64.40;;;;;;5014643;28;20521;-74
2022/06/04 09:32:47;;;;;;;10.13;5.30;;;29.90;64.90;;;;;;5017330;28;20521;-74
2022/06/04 09:35:18;;;;;;;6.67;6.03;;;30.40;63.30;;;;;;5014681;28;20506;-73
2022/06/04 09:37:47;;;;;;;9.40;5.87;;;30.60;61.60;;;;;;5018376;28;20498;-74
2022/06/04 09:40:20;;;;;;;7.67;6.17;;;30.70;62.20;;;;;;5015326;28;20519;-73
2022/06/04 09:42:48;;;;;;;7.90;6.67;;;30.70;62.50;;;;;;5015284;28;20965;-73
2022/06/04 09:45:20;;;;;;;7.10;6.40;;;30.30;62.30;;;;;;5015991;28;20447;-74
2022/06/04 09:47:51;;;;;;;8.23;6.70;;;30.40;62.80;;;;;;5015387;28;20448;-74
2022/06/04 09:50:25;;;;;;;6.80;5.60;;;29.60;63.40;;;;;;5015972;28;20444;-74
2022/06/04 09:53:07;;;;;;;7.40;6.30;;;29.60;64.80;;;;;;5013362;28;20808;-74
2022/06/04 09:55:35;;;;;;;6.20;5.00;;;29.90;64.50;;;;;;5015904;28;20543;-73
2022/06/04 09:58:07;;;;;;;6.97;5.30;;;30.00;64.00;;;;;;5017754;28;20526;-73
2022/06/04 10:00:38;;;;;;;7.30;4.97;;;30.00;63.50;;;;;;5021078;28;20526;-73
2022/06/04 10:03:14;;;;;;;6.80;4.40;;;29.70;62.70;;;;;;5013835;28;20517;-75
2022/06/04 10:05:49;;;;;;;5.67;3.80;;;29.50;62.60;;;;;;5009656;28;20196;-75
2022/06/04 10:08:20;;;;;;;5.03;3.90;;;29.70;60.20;;;;;;5015500;28;20451;-75
2022/06/04 10:10:47;;;;;;;4.87;3.70;;;29.60;59.70;;;;;;5011458;28;20464;-75
2022/06/04 10:16:15;;;;;;;7.10;4.70;;;29.50;61.00;;;;;;5011054;28;20447;-74
2022/06/04 10:18:57;;;;;;;4.83;3.10;;;29.70;60.30;;;;;;5016918;28;20446;-74
2022/06/04 10:21:27;;;;;;;4.80;3.50;;;29.70;60.20;;;;;;5005798;28;20535;-74
2022/06/04 10:23:58;;;;;;;6.17;4.17;;;29.50;60.30;;;;;;5011708;28;20512;-74
2022/06/04 10:26:52;;;;;;;5.07;4.10;;;29.20;59.70;;;;;;5021232;28;20870;-74
2022/06/04 10:29:50;;;;;;;4.00;3.50;;;29.20;59.40;;;;;;5025082;28;20528;-74
2022/06/04 10:32:26;;;;;;;4.00;3.60;;;29.20;59.20;;;;;;5006880;28;20914;-72
2022/06/04 10:35:03;;;;;;;4.60;3.10;;;29.00;60.30;;;;;;5004145;28;20539;-74
2022/06/04 10:37:44;;;;;;;5.40;2.90;;;28.60;59.50;;;;;;5001750;28;20455;-75
2022/06/04 10:40:35;;;;;;;4.10;3.73;;;28.10;59.00;;;;;;5000889;28;20492;-75
2022/06/04 10:43:11;;;;;;;3.30;3.00;;;27.40;61.10;;;;;;4998313;28;21267;-74
2022/06/04 10:45:44;;;;;;;4.50;3.60;;;26.80;62.50;;;;;;4998213;28;20450;-73
2022/06/04 10:48:19;;;;;;;3.97;3.57;;;26.70;63.60;;;;;;4998286;28;20653;-74
2022/06/04 10:53:55;;;;;;;7.03;4.70;;;26.00;66.00;;;;;;4998193;28;20527;-73
2022/06/04 10:56:29;;;;;;;5.63;3.20;;;25.70;66.40;;;;;;4997367;28;20466;-73
2022/06/04 10:59:02;;;;;;;3.43;3.07;;;25.40;68.20;;;;;;4996552;28;20540;-75
2022/06/04 11:01:37;;;;;;;6.20;3.70;;;25.50;67.70;;;;;;4994802;28;20452;-72
2022/06/04 11:04:17;;;;;;;4.00;3.23;;;25.50;67.20;;;;;;4996766;28;20971;-74
2022/06/04 11:06:49;;;;;;;3.90;3.00;;;25.30;65.70;;;;;;4995549;28;20458;-75
2022/06/04 11:09:20;;;;;;;3.83;3.40;;;25.30;63.90;;;;;;4996171;28;20455;-74
2022/06/04 11:11:51;;;;;;;4.13;3.13;;;25.40;64.70;;;;;;4996125;28;20618;-73
2022/06/04 11:14:28;;;;;;;5.53;3.80;;;25.30;65.40;;;;;;4996368;28;21856;-74
2022/06/04 11:17:01;;;;;;;4.57;3.53;;;25.20;65.80;;;;;;4997040;28;20559;-75
2022/06/04 11:19:33;;;;;;;4.23;3.83;;;25.10;68.60;;;;;;4995577;28;20534;-75
2022/06/04 11:22:05;;;;;;;5.10;3.90;;;25.10;67.80;;;;;;4996654;28;20720;-74
2022/06/04 11:24:40;;;;;;;4.97;4.23;;;25.10;69.40;;;;;;4998666;28;20478;-75
2022/06/04 11:27:12;;;;;;;5.40;4.20;;;25.20;69.20;;;;;;4997558;28;20996;-75
2022/06/04 11:29:40;;;;;;;8.80;4.30;;;25.20;71.00;;;;;;4996413;28;20596;-75
2022/06/04 11:32:16;;;;;;;5.43;4.03;;;25.00;71.70;;;;;;4996273;28;20610;-74
2022/06/04 11:35:16;;;;;;;5.17;4.23;;;24.80;72.30;;;;;;4994368;28;20491;-75
2022/06/04 11:38:05;;;;;;;5.40;4.60;;;24.70;72.50;;;;;;4991772;28;21812;-75
2022/06/04 11:40:37;;;;;;;7.07;4.57;;;24.60;74.10;;;;;;4994392;28;20443;-76
2022/06/04 11:43:15;;;;;;;4.70;4.30;;;24.60;74.60;;;;;;4995471;28;20512;-74
2022/06/04 11:45:53;;;;;;;6.43;5.40;;;24.40;74.40;;;;;;4994837;28;20832;-75
2022/06/04 11:48:50;;;;;;;5.60;4.70;;;24.40;74.30;;;;;;4993175;28;20444;-75
2022/06/04 11:51:34;;;;;;;5.97;4.57;;;24.40;74.70;;;;;;4990215;28;21333;-78
2022/06/04 11:54:08;;;;;;;8.90;4.20;;;24.30;73.70;;;;;;4995884;28;20521;-76
2022/06/04 11:56:45;;;;;;;6.30;4.93;;;24.30;73.70;;;;;;4997175;28;20436;-76
2022/06/04 11:59:26;;;;;;;7.40;5.23;;;24.40;72.90;;;;;;5006195;28;20439;-75
2022/06/04 12:01:59;;;;;;;4.70;4.30;;;24.50;73.10;;;;;;5016096;28;20471;-76
2022/06/04 12:04:33;;;;;;;7.10;5.23;;;24.50;72.40;;;;;;5012727;28;20934;-76
2022/06/04 12:07:08;;;;;;;6.87;5.13;;;24.40;72.10;;;;;;5019438;28;20460;-75
2022/06/04 12:09:41;;;;;;;7.37;4.67;;;24.30;72.50;;;;;;5010316;28;20802;-76
2022/06/04 12:12:15;;;;;;;5.90;4.70;;;24.30;71.40;;;;;;5009111;28;20571;-75
2022/06/04 12:14:49;;;;;;;5.50;5.00;;;24.00;71.90;;;;;;5007885;28;20800;-76
2022/06/04 12:17:21;;;;;;;6.23;4.50;;;23.90;72.20;;;;;;5013819;28;20797;-76
2022/06/04 12:25:37;;;;;;;5.50;3.73;;;24.00;74.20;;;;;;5002554;28;20432;-75
2022/06/04 12:28:22;;;;;;;9.07;5.23;;;24.00;74.40;;;;;;5014720;28;20542;-77
2022/06/04 12:30:49;;;;;;;6.83;5.47;;;24.00;73.90;;;;;;5009474;28;20467;-75
2022/06/04 12:33:40;;;;;;;4.20;3.80;;;24.10;72.20;;;;;;5020702;28;20526;-76
2022/06/04 12:36:10;;;;;;;4.80;4.37;;;24.10;73.00;;;;;;5009830;28;20531;-75
2022/06/04 12:38:39;;;;;;;8.70;4.77;;;24.10;73.00;;;;;;5019868;28;20459;-76
2022/06/04 12:41:11;;;;;;;5.60;4.20;;;24.00;71.80;;;;;;5015589;28;20479;-74
2022/06/04 12:43:39;;;;;;;5.13;4.63;;;24.00;71.00;;;;;;5006512;28;20564;-76
2022/06/04 12:46:10;;;;;;;5.43;4.17;;;23.90;73.10;;;;;;5017000;28;20445;-75
2022/06/04 12:48:58;;;;;;;6.50;4.13;;;23.90;73.20;;;;;;5008166;28;20446;-76
2022/06/04 12:51:41;;;;;;;4.83;4.30;;;24.10;72.30;;;;;;5001609;28;20535;-76
2022/06/04 12:54:38;;;;;;;3.80;3.47;;;24.30;72.40;;;;;;5011868;28;20857;-75
2022/06/04 12:57:21;;;;;;;6.30;4.20;;;24.40;71.30;;;;;;5007204;28;20462;-76
2022/06/04 12:59:51;;;;;;;4.80;4.30;;;24.60;71.20;;;;;;5009001;28;20930;-76
2022/06/04 13:02:33;;;;;;;4.63;3.80;;;24.70;71.10;;;;;;5014123;28;20475;-75
2022/06/04 13:05:13;;;;;;;5.57;4.20;;;24.70;71.20;;;;;;5009721;28;21222;-75
2022/06/04 13:07:51;;;;;;;7.07;4.47;;;24.60;71.70;;;;;;5013386;28;20506;-75
2022/06/04 13:10:34;;;;;;;6.93;4.10;;;24.70;72.10;;;;;;5008513;28;20450;-75
2022/06/04 13:13:13;;;;;;;5.10;4.60;;;24.70;71.40;;;;;;5021255;28;20464;-76
2022/06/04 13:15:46;;;;;;;7.37;4.50;;;24.70;71.20;;;;;;5018078;28;20483;-75
2022/06/04 13:18:20;;;;;;;6.27;4.17;;;24.60;71.10;;;;;;5017510;28;20542;-77
2022/06/04 13:20:51;;;;;;;4.87;4.07;;;24.60;71.50;;;;;;5021358;28;20433;-75
2022/06/04 13:23:29;;;;;;;7.23;4.43;;;24.70;71.40;;;;;;5014677;28;20984;-74
2022/06/04 13:26:30;;;;;;;14.83;4.10;;;25.00;70.50;;;;;;5013374;28;20470;-75
2022/06/04 13:28:58;;;;;;;4.80;4.00;;;25.00;70.50;;;;;;5009458;28;20502;-75